Time;durP1;ratioP1;P1;durP2;ratioP2;P2;SDS_P1;SDS_P2;PMS_P1;PMS_P2;Temp;Humidity;BMP_temperature;BMP_pressure;BME280_temperature;BME280_humidity;BME280_pressure;Samples;Min_cycle;Max_cycle;Signal;HPM_P1;HPM_P2
2022/12/31 00:00:40;;;;;;;13.38;11.93;;;6.70;99.90;;;;;;5022876;28;20275;-80
2022/12/31 00:03:07;;;;;;;13.88;12.50;;;6.60;99.90;;;;;;5024930;28;20213;-80
2022/12/31 00:05:35;;;;;;;13.63;12.43;;;6.70;99.90;;;;;;5020202;28;20295;-80
2022/12/31 00:08:01;;;;;;;13.20;11.27;;;6.60;99.90;;;;;;5020069;28;20598;-80
2022/12/31 00:10:28;;;;;;;12.93;11.73;;;6.60;99.90;;;;;;5019289;28;20173;-80
2022/12/31 00:12:53;;;;;;;12.40;11.30;;;6.60;99.90;;;;;;5018591;28;20215;-80
2022/12/31 00:15:19;;;;;;;14.38;12.13;;;6.70;99.90;;;;;;5020750;28;20173;-80
2022/12/31 00:17:44;;;;;;;16.63;13.00;;;6.60;99.90;;;;;;5017445;28;20687;-80
2022/12/31 00:20:10;;;;;;;14.13;12.70;;;6.70;99.90;;;;;;5016910;28;20193;-80
2022/12/31 00:22:36;;;;;;;14.93;13.43;;;6.70;99.90;;;;;;5016679;28;20201;-80
2022/12/31 00:25:01;;;;;;;15.23;12.68;;;6.60;99.90;;;;;;5018319;28;20239;-80
2022/12/31 00:27:30;;;;;;;13.55;12.13;;;6.70;99.90;;;;;;5022032;28;20232;-80
2022/12/31 00:29:55;;;;;;;13.93;12.60;;;6.80;99.90;;;;;;5017489;28;20643;-80
2022/12/31 00:32:21;;;;;;;13.98;12.77;;;6.80;99.90;;;;;;5024953;28;20263;-80
2022/12/31 00:34:47;;;;;;;14.82;13.43;;;6.80;99.90;;;;;;5021157;28;20315;-80
2022/12/31 00:37:12;;;;;;;14.48;13.00;;;6.70;99.90;;;;;;5019057;28;20235;-80
2022/12/31 00:39:38;;;;;;;14.10;12.70;;;6.70;99.90;;;;;;5014431;28;20200;-80
2022/12/31 00:42:03;;;;;;;14.40;13.02;;;6.70;99.90;;;;;;5019763;28;20668;-80
2022/12/31 00:44:29;;;;;;;15.35;13.85;;;6.80;99.90;;;;;;5014069;28;20272;-80
2022/12/31 00:46:55;;;;;;;14.75;12.88;;;6.80;99.90;;;;;;5020160;28;20225;-80
2022/12/31 00:49:20;;;;;;;13.98;12.52;;;6.80;99.90;;;;;;5021609;28;20656;-80
2022/12/31 00:51:46;;;;;;;14.90;13.40;;;6.70;99.90;;;;;;5018144;28;20209;-80
2022/12/31 00:54:12;;;;;;;15.88;14.35;;;6.70;99.90;;;;;;5023449;28;20180;-80
2022/12/31 00:56:37;;;;;;;14.98;13.38;;;6.70;99.90;;;;;;5023561;28;20181;-80
2022/12/31 00:59:03;;;;;;;14.60;13.18;;;6.70;99.90;;;;;;5018232;28;20629;-80
2022/12/31 01:01:32;;;;;;;18.23;13.52;;;6.70;99.90;;;;;;5022389;28;20201;-80
2022/12/31 01:04:04;;;;;;;13.57;12.27;;;6.80;99.90;;;;;;5023298;28;20200;-80
2022/12/31 01:06:30;;;;;;;13.60;12.40;;;6.70;99.90;;;;;;5012998;28;20304;-80
2022/12/31 01:08:55;;;;;;;13.80;12.57;;;6.70;99.90;;;;;;5018889;28;20350;-80
2022/12/31 01:11:22;;;;;;;14.43;12.93;;;6.70;99.90;;;;;;5025125;28;20204;-80
2022/12/31 01:13:52;;;;;;;14.57;13.00;;;6.70;99.90;;;;;;5035436;28;20708;-80
2022/12/31 01:16:20;;;;;;;14.63;13.13;;;6.60;99.90;;;;;;5013470;28;20176;-81
2022/12/31 01:18:45;;;;;;;14.15;12.80;;;6.60;99.90;;;;;;5021451;28;20200;-81
2022/12/31 01:21:12;;;;;;;14.23;12.82;;;6.70;99.90;;;;;;5015014;28;20290;-80
2022/12/31 01:23:38;;;;;;;14.80;12.50;;;6.80;99.90;;;;;;5017650;28;20180;-80
2022/12/31 01:26:06;;;;;;;14.10;12.77;;;6.80;99.90;;;;;;5016337;28;20188;-81
2022/12/31 01:28:32;;;;;;;17.17;13.30;;;6.90;99.90;;;;;;5007453;28;20201;-81
2022/12/31 01:30:58;;;;;;;14.05;12.68;;;6.80;99.90;;;;;;5016780;28;20574;-80
2022/12/31 01:33:24;;;;;;;13.75;12.43;;;6.80;99.90;;;;;;5020229;28;20192;-80
2022/12/31 01:35:49;;;;;;;13.38;11.93;;;6.80;99.90;;;;;;5018127;28;20637;-80
2022/12/31 01:38:15;;;;;;;13.75;12.45;;;6.80;99.90;;;;;;5015092;28;20715;-80
2022/12/31 01:40:41;;;;;;;14.20;12.73;;;6.80;99.90;;;;;;5013726;28;20205;-81
2022/12/31 01:43:16;;;;;;;13.93;12.38;;;6.80;99.90;;;;;;5016691;28;20206;-80
2022/12/31 01:45:46;;;;;;;13.70;12.30;;;6.70;99.90;;;;;;5015380;28;20275;-80
2022/12/31 01:48:14;;;;;;;12.90;11.60;;;6.80;99.90;;;;;;5021482;28;20197;-81
2022/12/31 01:50:40;;;;;;;15.93;14.30;;;6.80;99.90;;;;;;5015770;28;20193;-80
2022/12/31 01:53:09;;;;;;;16.42;14.70;;;6.70;99.90;;;;;;5017843;28;20189;-80
2022/12/31 01:55:37;;;;;;;13.50;12.20;;;6.60;99.90;;;;;;5017298;28;20203;-80
2022/12/31 01:58:12;;;;;;;15.68;14.15;;;6.50;99.90;;;;;;5020299;28;20937;-80
2022/12/31 02:00:38;;;;;;;14.73;12.90;;;6.40;99.90;;;;;;5018385;28;20215;-80
2022/12/31 02:03:05;;;;;;;15.07;13.57;;;6.50;99.90;;;;;;5014807;28;20180;-80
2022/12/31 02:06:02;;;;;;;15.40;13.80;;;6.40;99.90;;;;;;5023561;28;20374;-80
2022/12/31 02:08:27;;;;;;;14.18;12.77;;;6.50;99.90;;;;;;5008990;28;20231;-80
2022/12/31 02:10:53;;;;;;;14.07;12.70;;;6.40;99.90;;;;;;5015042;28;20201;-81
2022/12/31 02:13:19;;;;;;;14.27;12.75;;;6.40;99.90;;;;;;5020737;28;20291;-80
2022/12/31 02:15:59;;;;;;;14.77;13.23;;;6.40;99.90;;;;;;5018645;28;20196;-80
2022/12/31 02:18:48;;;;;;;16.50;13.50;;;6.30;99.90;;;;;;5021506;28;20164;-80
2022/12/31 02:21:22;;;;;;;14.63;12.90;;;6.20;99.90;;;;;;5018012;28;20205;-80
2022/12/31 02:24:18;;;;;;;14.52;13.02;;;6.30;99.90;;;;;;5014382;28;20820;-80
2022/12/31 02:26:58;;;;;;;14.23;12.90;;;6.20;99.90;;;;;;5020740;28;20235;-80
2022/12/31 02:29:58;;;;;;;14.68;13.23;;;6.20;99.90;;;;;;5015805;28;20189;-81
2022/12/31 02:32:33;;;;;;;14.05;12.65;;;6.30;99.90;;;;;;5005583;28;20217;-80
2022/12/31 02:35:06;;;;;;;14.00;12.23;;;6.30;99.90;;;;;;5013364;28;20215;-81
2022/12/31 02:37:35;;;;;;;15.18;13.63;;;6.40;99.90;;;;;;5015829;28;20184;-80
2022/12/31 02:40:01;;;;;;;14.15;12.85;;;6.40;99.90;;;;;;5023633;28;20538;-80
2022/12/31 02:42:27;;;;;;;14.80;13.30;;;6.40;99.90;;;;;;5013366;28;20197;-80
2022/12/31 02:44:52;;;;;;;15.93;13.80;;;6.40;99.90;;;;;;5018636;28;20675;-80
2022/12/31 02:47:35;;;;;;;14.30;12.90;;;6.40;99.90;;;;;;5014161;28;20204;-80
2022/12/31 02:50:19;;;;;;;15.77;13.15;;;6.50;99.90;;;;;;5012996;28;20252;-80
2022/12/31 02:53:26;;;;;;;14.25;12.75;;;6.50;99.90;;;;;;5007404;28;20184;-80
2022/12/31 02:56:02;;;;;;;14.43;12.98;;;6.70;99.90;;;;;;4996055;28;20215;-80
2022/12/31 03:04:32;;;;;;;15.20;12.98;;;6.70;99.90;;;;;;5007990;28;20267;-80
2022/12/31 03:07:13;;;;;;;17.45;12.85;;;6.70;99.90;;;;;;5015852;28;20242;-80
2022/12/31 03:09:39;;;;;;;12.20;11.05;;;6.80;99.90;;;;;;5013217;28;20180;-80
2022/12/31 03:14:51;;;;;;;11.65;10.55;;;6.80;99.90;;;;;;5018760;28;20188;-80
2022/12/31 03:17:17;;;;;;;13.63;12.27;;;6.90;99.90;;;;;;5015954;28;20369;-80
2022/12/31 03:22:27;;;;;;;13.80;12.40;;;6.90;99.90;;;;;;5011248;28;20216;-81
2022/12/31 03:27:50;;;;;;;13.45;12.05;;;6.90;99.90;;;;;;5022774;28;20579;-80
2022/12/31 03:30:18;;;;;;;14.20;12.80;;;6.90;99.90;;;;;;5025888;28;20169;-81
2022/12/31 03:32:45;;;;;;;12.80;11.50;;;6.80;99.90;;;;;;5017276;28;20176;-80
2022/12/31 03:35:12;;;;;;;13.15;11.95;;;6.90;99.90;;;;;;5024959;28;20181;-80
2022/12/31 03:37:39;;;;;;;12.02;11.00;;;6.90;99.90;;;;;;5021749;28;20256;-80
2022/12/31 03:40:06;;;;;;;13.27;11.95;;;6.80;99.90;;;;;;5014191;28;20281;-80
2022/12/31 03:42:32;;;;;;;13.85;12.50;;;6.90;99.90;;;;;;5011185;28;20684;-81
2022/12/31 03:44:59;;;;;;;14.60;11.68;;;6.90;99.90;;;;;;5015943;28;20263;-80
2022/12/31 03:47:24;;;;;;;12.55;11.32;;;6.90;99.90;;;;;;5016528;28;21097;-80
2022/12/31 03:49:50;;;;;;;12.98;11.50;;;6.90;99.90;;;;;;5014549;28;20173;-80
2022/12/31 03:52:16;;;;;;;13.25;11.90;;;6.90;99.90;;;;;;5016342;28;20832;-81
2022/12/31 03:54:41;;;;;;;12.35;11.20;;;7.00;99.90;;;;;;5008095;28;20174;-81
2022/12/31 03:57:07;;;;;;;13.23;11.90;;;7.00;99.90;;;;;;5019859;28;20695;-81
2022/12/31 03:59:32;;;;;;;14.70;12.40;;;7.00;99.90;;;;;;5015776;28;20183;-80
2022/12/31 04:01:58;;;;;;;12.55;11.20;;;7.00;99.90;;;;;;5010228;28;20288;-80
2022/12/31 04:04:23;;;;;;;12.45;11.27;;;7.00;99.90;;;;;;5021272;28;20279;-80
2022/12/31 04:06:49;;;;;;;15.63;12.60;;;7.00;99.90;;;;;;5016019;28;20640;-80
2022/12/31 04:09:15;;;;;;;12.85;11.65;;;6.80;99.90;;;;;;5017102;28;20185;-80
2022/12/31 04:11:40;;;;;;;14.93;12.77;;;6.70;99.90;;;;;;5012644;28;20290;-81
2022/12/31 04:14:06;;;;;;;13.10;11.93;;;6.70;99.90;;;;;;5018707;28;20573;-81
2022/12/31 04:16:32;;;;;;;13.45;12.13;;;6.60;99.90;;;;;;5023892;28;20655;-81
2022/12/31 04:18:57;;;;;;;14.63;13.13;;;6.60;99.90;;;;;;5010330;28;20186;-81
2022/12/31 04:21:23;;;;;;;13.88;12.32;;;6.50;99.90;;;;;;5019146;28;20720;-81
2022/12/31 04:23:49;;;;;;;16.00;13.30;;;6.40;99.90;;;;;;5012707;28;20276;-81
2022/12/31 04:26:14;;;;;;;14.43;12.95;;;6.30;99.90;;;;;;5021461;28;20184;-81
2022/12/31 04:28:40;;;;;;;15.57;12.52;;;6.30;99.90;;;;;;5022058;28;20209;-80
2022/12/31 04:31:06;;;;;;;13.98;12.50;;;6.20;99.90;;;;;;5017459;28;20699;-80
2022/12/31 04:33:31;;;;;;;17.23;12.88;;;6.20;99.90;;;;;;5022875;28;20247;-81
2022/12/31 04:36:01;;;;;;;13.98;12.57;;;6.10;99.90;;;;;;5018540;28;20243;-80
2022/12/31 04:38:28;;;;;;;14.70;13.30;;;6.10;99.90;;;;;;5020225;28;20187;-81
2022/12/31 04:43:38;;;;;;;17.38;13.50;;;6.00;99.90;;;;;;5026275;28;20191;-80
2022/12/31 04:46:04;;;;;;;16.70;14.48;;;6.00;99.90;;;;;;5014037;28;20193;-80
2022/12/31 04:48:30;;;;;;;13.35;11.55;;;6.10;99.90;;;;;;5019952;28;20683;-80
2022/12/31 04:50:55;;;;;;;15.10;12.20;;;6.10;99.90;;;;;;5022303;28;20201;-81
2022/12/31 04:53:21;;;;;;;14.38;12.90;;;6.20;99.90;;;;;;5020327;28;20213;-80
2022/12/31 04:55:47;;;;;;;14.68;12.65;;;6.20;99.90;;;;;;5019958;28;20252;-81
2022/12/31 04:58:12;;;;;;;12.73;11.38;;;6.30;99.90;;;;;;5017406;28;20236;-81
2022/12/31 05:00:38;;;;;;;13.63;12.23;;;6.40;99.90;;;;;;5017574;28;20200;-81
2022/12/31 05:03:04;;;;;;;16.33;12.52;;;6.40;99.90;;;;;;5011783;28;20220;-80
2022/12/31 05:05:29;;;;;;;14.85;12.18;;;6.50;99.90;;;;;;5015558;28;20181;-80
2022/12/31 05:07:55;;;;;;;14.07;12.43;;;6.60;99.90;;;;;;5020775;28;20211;-80
2022/12/31 05:10:20;;;;;;;23.45;12.63;;;6.60;99.90;;;;;;5017195;28;20172;-81
2022/12/31 05:12:46;;;;;;;12.80;11.38;;;6.60;99.90;;;;;;5015733;28;20588;-80
2022/12/31 05:15:11;;;;;;;13.02;11.10;;;6.60;99.90;;;;;;5020051;28;20186;-81
2022/12/31 05:17:37;;;;;;;13.13;11.70;;;6.70;99.90;;;;;;5013426;28;20185;-80
2022/12/31 05:20:03;;;;;;;12.07;10.88;;;6.80;99.90;;;;;;5014214;28;20672;-81
2022/12/31 05:22:28;;;;;;;13.27;11.32;;;6.90;99.90;;;;;;5011598;28;20695;-81
2022/12/31 05:24:55;;;;;;;12.00;10.75;;;6.90;99.90;;;;;;5017570;28;20236;-81
2022/12/31 05:27:21;;;;;;;11.55;10.43;;;6.80;99.90;;;;;;5012693;28;20220;-80
2022/12/31 05:29:47;;;;;;;13.18;9.85;;;6.90;99.90;;;;;;5018463;28;20181;-80
2022/12/31 05:32:12;;;;;;;12.50;9.85;;;6.90;99.90;;;;;;5023173;28;20567;-81
2022/12/31 05:34:38;;;;;;;12.77;9.25;;;7.00;99.90;;;;;;5016908;28;20180;-80
2022/12/31 05:37:04;;;;;;;9.52;8.75;;;7.10;99.90;;;;;;5015136;28;20181;-81
2022/12/31 05:39:29;;;;;;;9.55;8.68;;;7.10;99.90;;;;;;5015012;28;20177;-80
2022/12/31 05:41:55;;;;;;;10.35;9.35;;;7.10;99.90;;;;;;5018917;28;20233;-80
2022/12/31 05:44:20;;;;;;;10.15;9.13;;;7.00;99.90;;;;;;5014578;28;20203;-81
2022/12/31 05:46:46;;;;;;;11.15;9.95;;;6.90;99.90;;;;;;5022433;28;20196;-81
2022/12/31 05:49:11;;;;;;;11.25;10.02;;;6.80;99.90;;;;;;5021401;28;20174;-80
2022/12/31 05:51:37;;;;;;;10.30;9.25;;;6.70;99.90;;;;;;5020064;28;20192;-80
2022/12/31 05:54:03;;;;;;;11.35;10.23;;;6.60;99.90;;;;;;5017052;28;20209;-81
2022/12/31 05:56:28;;;;;;;11.05;9.77;;;6.60;99.90;;;;;;5013705;28;20169;-81
2022/12/31 05:58:55;;;;;;;10.18;9.18;;;6.60;99.90;;;;;;5015116;28;20589;-81
2022/12/31 06:01:20;;;;;;;10.73;9.43;;;6.70;99.90;;;;;;5014829;28;20232;-81
2022/12/31 06:03:46;;;;;;;11.35;9.90;;;6.80;99.90;;;;;;5013081;28;20275;-81
2022/12/31 06:06:11;;;;;;;11.40;10.20;;;6.80;99.90;;;;;;5015281;28;20675;-81
2022/12/31 06:08:37;;;;;;;11.57;9.75;;;6.80;99.90;;;;;;5011985;28;20197;-81
2022/12/31 06:11:03;;;;;;;15.90;10.85;;;6.80;99.90;;;;;;5017700;28;20188;-81
2022/12/31 06:13:28;;;;;;;9.98;8.98;;;6.80;99.90;;;;;;5015441;28;20173;-81
2022/12/31 06:15:54;;;;;;;10.32;9.32;;;6.80;99.90;;;;;;5013209;28;20181;-80
2022/12/31 06:18:19;;;;;;;10.48;9.48;;;6.90;99.90;;;;;;5011863;28;20716;-81
2022/12/31 06:20:45;;;;;;;9.38;8.57;;;7.10;99.90;;;;;;5015381;28;20232;-80
2022/12/31 06:23:11;;;;;;;11.75;10.55;;;7.00;99.90;;;;;;5014876;28;20193;-81
2022/12/31 06:25:36;;;;;;;11.10;10.10;;;7.10;99.90;;;;;;5021470;28;20661;-80
2022/12/31 06:28:03;;;;;;;11.18;10.07;;;7.00;99.90;;;;;;5020350;28;20208;-81
2022/12/31 06:30:29;;;;;;;10.57;9.45;;;7.00;99.90;;;;;;5011443;28;20200;-80
2022/12/31 06:32:55;;;;;;;10.68;9.15;;;7.10;99.90;;;;;;5016374;28;20636;-81
2022/12/31 06:35:21;;;;;;;11.15;10.05;;;7.10;99.90;;;;;;5014302;28;20182;-80
2022/12/31 06:37:47;;;;;;;10.68;9.68;;;7.10;99.90;;;;;;5010253;28;20185;-81
2022/12/31 06:40:12;;;;;;;10.55;9.63;;;7.00;99.90;;;;;;5015709;28;20203;-81
2022/12/31 06:42:38;;;;;;;10.40;9.40;;;7.10;99.90;;;;;;5013615;28;20201;-80
2022/12/31 06:45:04;;;;;;;11.15;10.05;;;7.00;99.90;;;;;;5021394;28;20183;-81
2022/12/31 06:47:29;;;;;;;11.98;10.75;;;6.90;99.90;;;;;;5013202;28;20205;-80
2022/12/31 06:49:55;;;;;;;10.75;9.75;;;6.90;99.90;;;;;;5024678;28;20188;-81
2022/12/31 06:52:21;;;;;;;11.98;10.75;;;6.80;99.90;;;;;;5015987;28;20620;-80
2022/12/31 06:54:47;;;;;;;12.20;10.13;;;6.70;99.90;;;;;;5016601;28;20985;-81
2022/12/31 06:57:13;;;;;;;11.50;10.32;;;6.70;99.90;;;;;;5015800;28;20188;-80
2022/12/31 06:59:39;;;;;;;13.07;10.93;;;6.70;99.90;;;;;;5013435;28;20547;-80
2022/12/31 07:02:39;;;;;;;11.85;10.75;;;6.60;99.90;;;;;;5017634;28;20220;-81
2022/12/31 07:05:15;;;;;;;13.07;11.73;;;6.50;99.90;;;;;;5013343;28;20196;-80
2022/12/31 07:07:40;;;;;;;12.57;11.35;;;6.40;99.90;;;;;;5011738;28;20232;-81
2022/12/31 07:10:19;;;;;;;13.15;11.48;;;6.40;99.90;;;;;;5010278;28;20221;-80
2022/12/31 07:13:10;;;;;;;11.32;10.23;;;6.40;99.90;;;;;;5015596;28;20227;-80
2022/12/31 07:15:57;;;;;;;10.95;9.95;;;6.40;99.90;;;;;;5033667;28;20181;-81
2022/12/31 07:18:32;;;;;;;12.32;10.85;;;6.40;99.90;;;;;;5027291;28;20173;-81
2022/12/31 07:20:58;;;;;;;12.35;10.38;;;6.40;99.90;;;;;;5014914;28;20196;-80
2022/12/31 07:23:23;;;;;;;12.20;11.10;;;6.40;99.90;;;;;;5013954;28;20192;-80
2022/12/31 07:26:05;;;;;;;13.02;10.70;;;6.50;99.90;;;;;;5020176;28;20177;-81
2022/12/31 07:28:58;;;;;;;11.75;10.55;;;6.50;99.90;;;;;;5018955;28;20673;-80
2022/12/31 07:32:09;;;;;;;14.20;11.23;;;6.50;99.90;;;;;;5011330;28;20204;-81
2022/12/31 07:34:50;;;;;;;11.35;10.15;;;6.60;99.90;;;;;;5036184;28;20178;-81
2022/12/31 07:37:37;;;;;;;13.10;11.77;;;6.60;99.90;;;;;;5031071;28;20259;-80
2022/12/31 07:40:24;;;;;;;11.27;10.18;;;6.60;99.90;;;;;;5021715;28;20228;-81
2022/12/31 07:43:08;;;;;;;11.15;9.98;;;6.70;99.90;;;;;;5014824;28;20192;-80
2022/12/31 07:46:02;;;;;;;13.07;11.00;;;6.80;99.90;;;;;;5011250;28;20215;-81
2022/12/31 07:48:28;;;;;;;11.30;10.20;;;6.70;99.90;;;;;;5008573;28;20205;-81
2022/12/31 07:50:55;;;;;;;11.35;10.27;;;6.70;99.90;;;;;;5013375;28;20583;-81
2022/12/31 07:53:22;;;;;;;10.63;9.52;;;6.80;99.90;;;;;;5013109;28;20189;-80
2022/12/31 07:56:02;;;;;;;13.13;10.43;;;6.80;99.90;;;;;;5014919;28;20208;-81
2022/12/31 07:58:49;;;;;;;11.13;10.02;;;6.80;99.90;;;;;;5008089;28;20188;-81
2022/12/31 08:01:25;;;;;;;12.27;10.88;;;6.80;99.90;;;;;;5012278;28;20703;-81
2022/12/31 08:03:59;;;;;;;11.07;9.98;;;6.80;99.90;;;;;;5020943;28;20663;-81
2022/12/31 08:06:47;;;;;;;12.07;9.23;;;6.90;99.90;;;;;;5008049;28;20230;-81
2022/12/31 08:09:38;;;;;;;11.15;10.07;;;7.00;99.90;;;;;;5016560;28;20212;-81
2022/12/31 08:12:04;;;;;;;11.02;9.98;;;7.10;99.90;;;;;;5014308;28;20208;-80
2022/12/31 08:14:31;;;;;;;10.35;9.40;;;7.20;99.90;;;;;;5017491;28;20165;-81
2022/12/31 08:16:57;;;;;;;11.23;9.57;;;7.30;99.90;;;;;;5026783;28;20235;-81
2022/12/31 08:19:25;;;;;;;9.93;8.98;;;7.40;99.90;;;;;;5015447;28;20275;-81
2022/12/31 08:22:22;;;;;;;10.23;9.25;;;7.40;99.90;;;;;;5020692;28;20226;-81
2022/12/31 08:24:57;;;;;;;8.55;7.75;;;7.50;99.90;;;;;;5019316;28;20215;-81
2022/12/31 08:27:35;;;;;;;10.63;9.55;;;7.60;99.90;;;;;;5016907;28;20201;-81
2022/12/31 08:30:09;;;;;;;9.68;8.77;;;7.70;99.90;;;;;;5011365;28;20683;-81
2022/12/31 08:32:39;;;;;;;9.35;8.52;;;7.70;99.90;;;;;;5015754;28;20247;-81
2022/12/31 08:35:21;;;;;;;9.48;8.68;;;7.70;99.90;;;;;;5021676;28;20272;-81
2022/12/31 08:38:11;;;;;;;8.20;7.40;;;7.60;99.90;;;;;;5016667;28;20244;-81
2022/12/31 08:40:56;;;;;;;8.45;7.75;;;7.70;99.90;;;;;;5017158;28;20283;-81
2022/12/31 08:43:36;;;;;;;9.35;8.40;;;7.70;99.90;;;;;;5014695;28;20185;-81
2022/12/31 08:46:06;;;;;;;7.97;7.30;;;7.80;99.90;;;;;;5013142;28;20671;-81
2022/12/31 08:48:41;;;;;;;8.77;7.88;;;8.00;99.90;;;;;;5015010;28;20631;-81
2022/12/31 08:51:16;;;;;;;8.60;7.30;;;7.90;99.90;;;;;;5023969;28;20562;-81
2022/12/31 08:53:42;;;;;;;8.80;8.00;;;8.10;99.90;;;;;;5024967;28;20204;-81
2022/12/31 08:56:32;;;;;;;7.53;6.85;;;8.10;99.90;;;;;;5024670;28;20177;-81
2022/12/31 08:59:06;;;;;;;8.45;7.65;;;8.10;99.90;;;;;;5018906;28;20186;-81
2022/12/31 09:01:46;;;;;;;7.53;6.93;;;8.30;99.90;;;;;;5018365;28;20197;-81
2022/12/31 09:04:40;;;;;;;7.82;7.13;;;8.50;99.90;;;;;;5025005;28;20295;-81
2022/12/31 09:07:08;;;;;;;8.23;7.53;;;8.90;99.90;;;;;;5023064;28;20205;-81
2022/12/31 09:09:47;;;;;;;7.45;6.85;;;9.30;99.90;;;;;;5031150;28;20184;-81
2022/12/31 09:12:25;;;;;;;6.10;5.60;;;9.40;99.90;;;;;;5028566;28;20216;-81
2022/12/31 09:15:14;;;;;;;7.45;6.85;;;9.80;99.90;;;;;;5026640;28;20193;-81
2022/12/31 09:17:46;;;;;;;7.28;6.57;;;10.70;99.90;;;;;;5016356;28;20189;-81
2022/12/31 09:20:30;;;;;;;6.97;6.28;;;11.30;99.90;;;;;;5023768;28;20651;-81
2022/12/31 09:22:59;;;;;;;6.10;5.60;;;11.70;99.90;;;;;;5023817;28;20187;-81
2022/12/31 09:25:26;;;;;;;6.85;5.65;;;11.80;99.90;;;;;;5032882;28;20279;-81
2022/12/31 09:28:14;;;;;;;5.50;5.05;;;11.80;99.90;;;;;;5025658;28;20678;-81
2022/12/31 09:31:03;;;;;;;5.63;5.15;;;11.80;99.90;;;;;;5024695;28;20185;-81
2022/12/31 09:37:29;;;;;;;5.10;4.60;;;13.20;99.90;;;;;;5030964;28;20188;-81
2022/12/31 09:40:00;;;;;;;4.70;4.30;;;15.70;99.90;;;;;;5031924;28;20182;-81
2022/12/31 09:42:32;;;;;;;3.88;3.58;;;17.60;99.90;;;;;;5035843;28;20197;-81
2022/12/31 09:45:06;;;;;;;3.72;3.45;;;19.00;99.90;;;;;;5030221;28;20248;-81
2022/12/31 09:47:53;;;;;;;3.95;3.60;;;20.30;99.90;;;;;;5032216;28;20219;-81
2022/12/31 09:50:38;;;;;;;3.58;3.33;;;21.70;99.90;;;;;;5026839;28;20187;-82
2022/12/31 09:53:15;;;;;;;4.13;3.55;;;22.00;99.90;;;;;;5022659;28;20208;-81
2022/12/31 09:56:01;;;;;;;3.38;3.17;;;21.80;99.90;;;;;;5030539;28;20166;-81
2022/12/31 09:58:42;;;;;;;3.33;3.13;;;21.20;99.90;;;;;;5019744;28;20185;-81
2022/12/31 10:01:26;;;;;;;3.55;3.25;;;20.10;99.90;;;;;;5030405;28;20281;-81
2022/12/31 10:04:18;;;;;;;4.00;3.58;;;18.90;99.90;;;;;;5028051;28;20216;-83
2022/12/31 10:07:22;;;;;;;3.83;3.50;;;17.80;99.90;;;;;;5041291;28;20185;-81
2022/12/31 10:10:34;;;;;;;3.58;3.38;;;16.90;99.90;;;;;;5029231;28;20177;-81
2022/12/31 10:13:12;;;;;;;3.78;3.47;;;16.10;99.90;;;;;;5027356;28;20197;-81
2022/12/31 10:16:11;;;;;;;3.97;3.72;;;15.60;99.90;;;;;;5028212;28;20188;-81
2022/12/31 10:19:06;;;;;;;6.07;4.05;;;15.20;99.90;;;;;;5027960;28;20253;-82
2022/12/31 10:21:40;;;;;;;5.65;4.38;;;14.90;99.90;;;;;;5031059;28;20205;-81
2022/12/31 10:24:28;;;;;;;3.45;3.25;;;14.50;99.90;;;;;;5029449;28;20192;-82
2022/12/31 10:26:58;;;;;;;4.20;3.90;;;14.10;99.90;;;;;;5045128;28;20189;-81
2022/12/31 10:29:35;;;;;;;3.72;3.42;;;13.70;99.90;;;;;;5025861;28;20188;-81
2022/12/31 10:32:41;;;;;;;6.25;4.15;;;13.50;99.90;;;;;;5031736;28;20251;-81
2022/12/31 10:35:48;;;;;;;4.05;3.78;;;13.30;99.90;;;;;;5025943;28;20188;-81
2022/12/31 10:38:32;;;;;;;4.20;3.90;;;13.10;99.90;;;;;;5029596;28;20193;-81
2022/12/31 10:42:02;;;;;;;4.38;3.97;;;12.90;99.90;;;;;;5030770;28;20205;-82
2022/12/31 10:45:12;;;;;;;4.75;3.28;;;12.70;99.90;;;;;;4988577;28;20529;-81
2022/12/31 10:47:59;;;;;;;3.65;3.42;;;12.60;99.90;;;;;;4988477;28;20202;-81
2022/12/31 10:51:05;;;;;;;4.05;3.83;;;12.70;99.90;;;;;;5022187;28;20185;-81
2022/12/31 10:54:16;;;;;;;4.30;3.67;;;12.90;99.90;;;;;;5036478;28;20605;-81
2022/12/31 10:58:03;;;;;;;4.05;3.75;;;13.10;99.90;;;;;;5043615;28;20200;-82
2022/12/31 11:00:32;;;;;;;4.47;4.10;;;13.40;99.90;;;;;;5028473;28;20181;-82
2022/12/31 11:03:10;;;;;;;4.07;3.75;;;13.80;99.90;;;;;;5027884;28;20179;-81
2022/12/31 11:06:03;;;;;;;3.85;3.58;;;14.00;99.90;;;;;;5027690;28;20185;-81
2022/12/31 11:08:32;;;;;;;4.15;3.85;;;14.10;99.90;;;;;;5037000;28;20198;-81
2022/12/31 11:11:39;;;;;;;4.07;3.67;;;14.60;99.90;;;;;;5030222;28;20247;-81
2022/12/31 11:14:10;;;;;;;3.65;3.33;;;14.70;99.90;;;;;;5028959;28;20620;-81
2022/12/31 11:17:15;;;;;;;4.03;3.72;;;14.80;99.90;;;;;;5028368;28;20178;-81
2022/12/31 11:19:59;;;;;;;4.40;4.10;;;14.90;99.90;;;;;;5025814;28;20187;-81
2022/12/31 11:23:21;;;;;;;5.60;3.75;;;14.90;99.90;;;;;;5032947;28;20698;-81
2022/12/31 11:25:53;;;;;;;3.78;3.47;;;14.90;99.90;;;;;;5043600;28;20236;-81
2022/12/31 11:28:32;;;;;;;4.25;3.85;;;14.70;99.90;;;;;;5033345;28;20225;-81
2022/12/31 11:31:35;;;;;;;3.50;3.20;;;14.50;99.90;;;;;;5029226;28;20193;-81
2022/12/31 11:34:22;;;;;;;4.25;3.75;;;14.30;99.90;;;;;;5028318;28;20173;-81
2022/12/31 11:37:07;;;;;;;3.90;3.60;;;14.40;99.90;;;;;;5024668;28;20188;-81
2022/12/31 11:40:08;;;;;;;8.38;4.07;;;14.30;99.90;;;;;;5022133;28;20208;-81
2022/12/31 11:43:00;;;;;;;4.53;4.20;;;14.30;99.90;;;;;;5027790;28;20675;-81
2022/12/31 11:45:56;;;;;;;4.53;3.90;;;14.30;99.90;;;;;;5044277;28;20271;-82
2022/12/31 11:48:34;;;;;;;5.32;3.97;;;14.20;99.90;;;;;;5031078;28;20268;-81
2022/12/31 11:51:41;;;;;;;4.97;4.47;;;14.20;99.90;;;;;;5030152;28;20204;-81
2022/12/31 11:55:01;;;;;;;4.78;4.35;;;14.50;99.90;;;;;;5023079;28;20192;-82
2022/12/31 11:57:34;;;;;;;5.65;4.30;;;14.60;99.90;;;;;;5029171;28;20581;-81
2022/12/31 12:00:13;;;;;;;4.70;3.85;;;15.10;99.90;;;;;;5046836;28;20200;-81
2022/12/31 12:03:04;;;;;;;4.20;3.70;;;16.40;99.90;;;;;;5027204;28;20219;-81
2022/12/31 12:05:30;;;;;;;4.32;3.83;;;17.50;99.90;;;;;;5027614;28;20223;-81
2022/12/31 12:07:56;;;;;;;3.50;3.20;;;19.10;99.90;;;;;;5033874;28;20196;-81
2022/12/31 12:10:26;;;;;;;3.08;2.78;;;21.00;99.90;;;;;;5022408;28;20200;-81
2022/12/31 12:12:53;;;;;;;2.45;2.22;;;22.60;99.90;;;;;;5025578;28;20546;-82
2022/12/31 12:15:31;;;;;;;3.00;2.67;;;23.30;99.90;;;;;;5026985;28;20172;-82
2022/12/31 12:18:08;;;;;;;3.53;3.20;;;23.40;99.90;;;;;;5023274;28;20180;-82
2022/12/31 12:20:36;;;;;;;3.20;3.00;;;24.10;99.90;;;;;;5019556;28;20251;-82
2022/12/31 12:23:16;;;;;;;4.68;2.78;;;24.50;97.80;;;;;;5018231;28;20476;-82
2022/12/31 12:25:43;;;;;;;3.28;2.97;;;24.00;96.20;;;;;;5022223;28;20296;-82
2022/12/31 12:28:22;;;;;;;5.30;3.35;;;23.20;96.40;;;;;;5021339;28;20208;-82
2022/12/31 12:31:03;;;;;;;3.30;2.88;;;21.80;98.70;;;;;;5027267;28;20274;-81
2022/12/31 12:33:40;;;;;;;2.70;2.53;;;20.90;99.90;;;;;;5025156;28;20199;-82
2022/12/31 12:36:11;;;;;;;2.53;2.42;;;20.20;99.90;;;;;;5024377;28;20209;-81
2022/12/31 12:38:37;;;;;;;3.05;2.70;;;19.80;99.90;;;;;;5026922;28;20315;-81
2022/12/31 12:41:06;;;;;;;8.25;2.70;;;19.40;99.90;;;;;;5025375;28;20211;-82
2022/12/31 12:43:36;;;;;;;3.00;2.80;;;18.70;99.90;;;;;;5030383;28;20253;-81
2022/12/31 12:46:17;;;;;;;2.65;2.42;;;18.70;99.90;;;;;;5021430;28;20197;-81
2022/12/31 12:48:45;;;;;;;3.00;2.80;;;19.20;99.90;;;;;;5028401;28;20197;-81
2022/12/31 12:51:11;;;;;;;3.67;3.13;;;19.50;99.90;;;;;;5018067;28;20578;-82
2022/12/31 12:54:21;;;;;;;2.95;2.75;;;19.30;99.90;;;;;;5027219;28;20189;-81
2022/12/31 12:57:19;;;;;;;3.03;2.70;;;19.00;99.90;;;;;;5029708;28;20219;-82
2022/12/31 13:00:07;;;;;;;2.90;2.70;;;18.80;99.90;;;;;;5028992;28;20268;-81
2022/12/31 13:02:48;;;;;;;3.15;2.95;;;18.40;99.90;;;;;;5032908;28;20198;-81
2022/12/31 13:05:37;;;;;;;3.45;3.08;;;18.10;99.90;;;;;;5025788;28;20181;-81
2022/12/31 13:08:31;;;;;;;3.35;3.10;;;17.90;99.90;;;;;;5033897;28;20223;-81
2022/12/31 13:11:14;;;;;;;3.30;3.10;;;17.50;99.90;;;;;;5029432;28;20223;-81
2022/12/31 13:13:55;;;;;;;3.30;3.10;;;17.20;99.90;;;;;;5027402;28;20170;-81
2022/12/31 13:16:38;;;;;;;4.80;3.15;;;17.00;99.90;;;;;;5032063;28;20168;-81
2022/12/31 13:19:24;;;;;;;3.42;3.17;;;16.80;99.90;;;;;;5029254;28;20423;-81
2022/12/31 13:21:54;;;;;;;3.30;3.00;;;16.70;99.90;;;;;;5035546;28;20271;-82
2022/12/31 13:24:38;;;;;;;3.20;3.00;;;16.80;99.90;;;;;;5031627;28;20628;-82
2022/12/31 13:27:17;;;;;;;3.30;3.10;;;16.60;99.90;;;;;;5036252;28;20241;-81
2022/12/31 13:29:46;;;;;;;4.50;3.20;;;16.70;99.90;;;;;;5027950;28;20184;-81
2022/12/31 13:32:17;;;;;;;2.95;2.75;;;16.40;99.90;;;;;;5030207;28;20259;-81
2022/12/31 13:34:46;;;;;;;3.00;2.80;;;16.40;99.90;;;;;;5032658;28;20205;-81
2022/12/31 13:37:39;;;;;;;3.28;2.97;;;16.50;99.90;;;;;;5030848;28;20176;-82
2022/12/31 13:40:30;;;;;;;2.72;2.53;;;16.50;99.90;;;;;;5027960;28;20189;-82
2022/12/31 13:43:49;;;;;;;3.30;3.10;;;16.50;99.90;;;;;;5035250;28;20336;-81